Terminal Aerodrome Forecast
Issued by NWS

Home | Current Version | Previous Version | Text Only | Print | Product List | Glossary On
Versions: 1 2 3 4 5 6 7 8 9 10 11 12 13 14 15 16 17 18 19 20 21 22
751
FTUS43 KLSX 271140
TAFCPS
TAF
KCPS 271140Z 2712/2812 VRB03KT 3SM BR SCT150
     FM271300 13004KT P6SM SCT250
     FM272000 15005KT P6SM BKN050
     FM280000 15006KT P6SM VCTS BKN050CB
      TEMPO 2801/2803 VRB35KT 2SM TSRA OVC035CB
     FM280400 17007KT P6SM BKN150=

USA.gov is the U.S. government's official web portal to all federal, state and local government web resources and services.